createdAt,value
2022-10-05T00:01:00.245Z,13.25
2022-10-05T00:03:33.639Z,14.52
2022-10-05T00:06:00.673Z,18.67
2022-10-05T00:08:32.203Z,17.80
2022-10-05T00:10:59.702Z,17.73
2022-10-05T00:13:29.759Z,16.40
2022-10-05T00:16:09.612Z,23.52
2022-10-05T00:18:37.092Z,18.10
2022-10-05T00:21:19.746Z,19.33
2022-10-05T00:23:47.145Z,23.55
2022-10-05T00:26:20.183Z,21.30
2022-10-05T00:28:47.919Z,15.73
2022-10-05T00:31:36.201Z,17.33
2022-10-05T00:34:03.460Z,23.48
2022-10-05T00:36:30.449Z,22.55
2022-10-05T00:38:57.388Z,27.55
2022-10-05T00:41:42.536Z,30.52
2022-10-05T00:44:28.052Z,23.58
2022-10-05T00:47:04.553Z,22.48
2022-10-05T00:49:57.508Z,22.27
2022-10-05T00:53:02.768Z,21.85
2022-10-05T00:55:38.464Z,22.23
2022-10-05T00:58:52.576Z,19.60
2022-10-05T01:01:30.188Z,23.38
2022-10-05T01:04:13.602Z,25.85
2022-10-05T01:06:55.535Z,23.85
2022-10-05T01:09:45.688Z,21.77
2022-10-05T01:12:37.830Z,18.67
2022-10-05T01:15:21.978Z,23.50
2022-10-05T01:17:58.349Z,36.20
2022-10-05T01:20:39.665Z,22.27
2022-10-05T01:23:32.588Z,24.85
2022-10-05T01:26:17.521Z,18.23
2022-10-05T01:28:52.850Z,16.00
2022-10-05T01:31:19.825Z,19.58
2022-10-05T01:33:56.552Z,21.75
2022-10-05T01:36:37.256Z,21.92
2022-10-05T01:39:43.151Z,21.30
2022-10-05T01:42:22.068Z,12.90
2022-10-05T01:44:55.433Z,14.90
2022-10-05T01:47:33.443Z,10.63
2022-10-05T01:50:07.103Z,14.23
2022-10-05T01:52:51.150Z,13.00
2022-10-05T01:56:03.784Z,9.35
2022-10-05T01:58:50.892Z,13.98
2022-10-05T02:01:20.412Z,16.38
2022-10-05T02:03:57.620Z,16.17
2022-10-05T02:06:28.094Z,15.63
2022-10-05T02:09:26.809Z,11.95
2022-10-05T02:12:07.074Z,13.07
2022-10-05T02:14:42.063Z,17.45
2022-10-05T02:17:17.628Z,12.38
2022-10-05T02:19:56.170Z,13.02
2022-10-05T02:22:37.394Z,14.45
2022-10-05T02:25:13.578Z,16.55
2022-10-05T02:28:13.114Z,14.60
2022-10-05T02:31:07.356Z,12.50
2022-10-05T02:33:36.036Z,13.50
2022-10-05T02:36:17.988Z,11.80
2022-10-05T02:38:52.879Z,13.77
2022-10-05T02:41:42.403Z,14.27
2022-10-05T02:44:22.087Z,20.42
2022-10-05T02:47:02.329Z,13.07
2022-10-05T02:49:44.044Z,19.83
2022-10-05T02:52:22.559Z,11.07
2022-10-05T02:55:26.390Z,10.57
2022-10-05T02:58:03.808Z,11.48
2022-10-05T03:00:37.016Z,9.93
2022-10-05T03:03:16.673Z,9.80
2022-10-05T03:06:03.831Z,13.35
2022-10-05T03:08:31.683Z,9.88
2022-10-05T03:11:18.474Z,13.55
2022-10-05T03:14:13.595Z,12.13
2022-10-05T03:17:08.568Z,12.50
2022-10-05T03:19:37.062Z,12.50
2022-10-05T03:22:29.509Z,11.77
2022-10-05T03:25:36.222Z,11.18
2022-10-05T03:28:22.800Z,10.63
2022-10-05T03:31:23.649Z,11.13
2022-10-05T03:34:00.859Z,9.77
2022-10-05T03:36:49.686Z,13.40
2022-10-05T03:39:38.714Z,12.45
2022-10-05T03:42:11.660Z,12.32
2022-10-05T03:44:45.056Z,12.52
2022-10-05T03:47:43.495Z,12.52
2022-10-05T03:50:34.271Z,14.48
2022-10-05T03:53:11.056Z,15.60
2022-10-05T03:55:48.106Z,14.80
2022-10-05T03:58:29.530Z,16.17
2022-10-05T04:01:03.828Z,16.83
2022-10-05T04:03:38.235Z,11.65
2022-10-05T04:06:15.682Z,12.82
2022-10-05T04:08:50.862Z,13.65
2022-10-05T04:11:26.452Z,15.43
2022-10-05T04:14:16.015Z,15.65
2022-10-05T04:16:49.806Z,13.00
2022-10-05T04:19:24.969Z,17.52
2022-10-05T04:22:06.401Z,13.75
2022-10-05T04:24:39.874Z,17.10
2022-10-05T04:27:36.294Z,20.35
2022-10-05T04:30:05.483Z,17.55
2022-10-05T04:32:45.903Z,20.77
2022-10-05T04:35:31.879Z,14.10
2022-10-05T04:38:12.044Z,21.23
2022-10-05T04:40:51.776Z,19.05
2022-10-05T04:43:32.582Z,18.40
2022-10-05T04:46:05.350Z,13.68
2022-10-05T04:48:50.313Z,18.92
2022-10-05T04:51:26.546Z,18.30
2022-10-05T04:53:59.129Z,19.63
2022-10-05T04:56:32.449Z,12.38
2022-10-05T04:59:20.161Z,22.52
2022-10-05T05:02:17.093Z,19.08
2022-10-05T05:04:57.735Z,14.45
2022-10-05T05:07:53.911Z,22.15
2022-10-05T05:10:39.772Z,21.35
2022-10-05T05:13:29.927Z,21.15
2022-10-05T05:16:05.093Z,22.98
2022-10-05T05:18:42.671Z,21.75
2022-10-05T05:21:31.175Z,24.52
2022-10-05T05:24:03.235Z,30.88
2022-10-05T05:26:55.775Z,18.77
2022-10-05T05:29:49.682Z,22.30
2022-10-05T05:32:45.991Z,19.58
2022-10-05T05:35:36.828Z,19.30
2022-10-05T05:38:37.679Z,28.40
2022-10-05T05:41:12.339Z,28.40
2022-10-05T05:43:53.653Z,21.73
2022-10-05T05:46:58.392Z,23.67
2022-10-05T05:49:32.280Z,22.08
2022-10-05T05:52:13.671Z,18.98
2022-10-05T05:55:29.688Z,31.88
2022-10-05T05:58:04.509Z,22.75
2022-10-05T06:01:20.209Z,24.50
2022-10-05T06:04:01.653Z,16.10
2022-10-05T06:06:34.982Z,24.80
2022-10-05T06:09:15.762Z,23.27
2022-10-05T06:12:21.512Z,13.70
2022-10-05T06:14:55.297Z,20.45
2022-10-05T06:17:32.927Z,15.43
2022-10-05T06:20:05.446Z,15.88
2022-10-05T06:22:42.538Z,16.00
2022-10-05T06:25:12.463Z,21.67
2022-10-05T06:28:08.436Z,14.75
2022-10-05T06:31:09.080Z,18.23
2022-10-05T06:33:50.764Z,24.75
2022-10-05T06:36:38.961Z,12.95
2022-10-05T06:39:43.701Z,20.60
2022-10-05T06:42:23.099Z,15.30
2022-10-05T06:45:22.386Z,15.80
2022-10-05T06:48:39.296Z,11.85
2022-10-05T06:51:52.908Z,18.30
2022-10-05T06:54:35.243Z,20.88
2022-10-05T06:57:21.728Z,15.90
2022-10-05T07:00:02.692Z,16.88
2022-10-05T07:02:53.813Z,13.10
2022-10-05T07:05:45.453Z,17.48
2022-10-05T07:08:24.938Z,13.65
2022-10-05T07:11:43.017Z,16.08
2022-10-05T07:14:36.185Z,10.05
2022-10-05T07:17:27.525Z,12.95
2022-10-05T07:20:09.225Z,16.15
2022-10-05T07:23:13.873Z,11.40
2022-10-05T07:25:53.373Z,13.95
2022-10-05T07:28:47.639Z,11.38
2022-10-05T07:31:40.776Z,17.52
2022-10-05T07:34:44.141Z,16.08
2022-10-05T07:37:38.647Z,10.60
2022-10-05T07:40:18.201Z,21.52
2022-10-05T07:43:22.455Z,15.75
2022-10-05T07:46:03.684Z,12.27
2022-10-05T07:49:00.228Z,11.85
2022-10-05T07:51:36.484Z,15.27
2022-10-05T07:54:57.157Z,19.00
2022-10-05T07:57:38.429Z,14.23
2022-10-05T08:00:20.388Z,21.17
2022-10-05T08:02:53.411Z,15.07
2022-10-05T08:05:24.355Z,8.77
2022-10-05T08:08:16.683Z,19.70
2022-10-05T08:10:59.767Z,12.43
2022-10-05T08:13:52.226Z,7.43
2022-10-05T08:16:19.979Z,10.45
2022-10-05T08:19:06.830Z,10.65
2022-10-05T08:21:45.123Z,33.87
2022-10-05T08:24:21.296Z,19.23
2022-10-05T08:27:04.658Z,15.77
2022-10-05T08:29:34.620Z,12.73
2022-10-05T08:32:12.716Z,8.52
2022-10-05T08:34:52.609Z,13.43
2022-10-05T08:37:22.587Z,19.20
2022-10-05T08:40:22.644Z,15.98
2022-10-05T08:43:01.583Z,13.57
2022-10-05T08:45:31.470Z,20.27
2022-10-05T08:48:36.177Z,19.52
2022-10-05T08:51:48.736Z,17.13
2022-10-05T08:54:34.817Z,18.38
2022-10-05T08:57:22.815Z,15.13
2022-10-05T09:00:20.736Z,16.90
2022-10-05T09:03:08.868Z,14.30
2022-10-05T09:06:06.306Z,16.33
2022-10-05T09:09:12.759Z,12.90
2022-10-05T09:11:46.198Z,12.48
2022-10-05T09:14:34.179Z,10.88
2022-10-05T09:17:39.928Z,15.32
2022-10-05T09:20:25.364Z,13.82
2022-10-05T09:23:05.212Z,12.98
2022-10-05T09:25:44.100Z,12.27
2022-10-05T09:28:23.047Z,6.32
2022-10-05T09:31:12.791Z,12.15
2022-10-05T09:34:00.612Z,5.57
2022-10-05T09:36:27.557Z,4.40
2022-10-05T09:38:57.378Z,5.97
2022-10-05T09:41:30.074Z,6.50
2022-10-05T09:44:11.987Z,5.40
2022-10-05T09:46:57.625Z,4.88
2022-10-05T09:49:55.404Z,5.55
2022-10-05T09:52:48.391Z,6.53
2022-10-05T09:55:39.343Z,6.28
2022-10-05T09:58:37.031Z,5.93
2022-10-05T10:01:33.710Z,9.95
2022-10-05T10:04:08.163Z,6.03
2022-10-05T10:07:25.914Z,6.03
2022-10-05T10:10:31.092Z,6.38
2022-10-05T10:13:31.175Z,8.30
2022-10-05T10:16:00.780Z,6.38
2022-10-05T10:18:27.777Z,10.18
2022-10-05T10:21:49.070Z,4.07
2022-10-05T10:24:44.226Z,7.72
2022-10-05T10:27:20.474Z,12.00
2022-10-05T10:30:14.015Z,14.70
2022-10-05T10:32:54.451Z,11.55
2022-10-05T10:35:37.340Z,7.95
2022-10-05T10:38:23.816Z,11.73
2022-10-05T10:41:14.477Z,7.23
2022-10-05T10:43:41.728Z,13.85
2022-10-05T10:46:29.965Z,8.52
2022-10-05T10:49:33.656Z,21.58
2022-10-05T10:52:31.316Z,15.20
2022-10-05T10:55:04.511Z,9.25
2022-10-05T10:57:52.798Z,12.90
2022-10-05T11:00:38.204Z,14.32
2022-10-05T11:03:24.110Z,14.93
2022-10-05T11:06:17.254Z,7.32
2022-10-05T11:09:21.322Z,14.18
2022-10-05T11:12:12.879Z,17.10
2022-10-05T11:14:48.636Z,12.25
2022-10-05T11:17:18.348Z,10.65
2022-10-05T11:20:04.364Z,14.55
2022-10-05T11:22:54.632Z,11.75
2022-10-05T11:25:58.877Z,8.73
2022-10-05T11:29:01.141Z,13.23
2022-10-05T11:31:50.414Z,21.98
2022-10-05T11:34:27.312Z,10.68
2022-10-05T11:37:24.868Z,13.13
2022-10-05T11:40:10.178Z,6.45
2022-10-05T11:43:00.371Z,10.60
2022-10-05T11:45:46.610Z,7.47
2022-10-05T11:49:15.469Z,5.22
2022-10-05T11:51:47.692Z,4.38
2022-10-05T11:54:17.707Z,10.05
2022-10-05T11:56:54.750Z,4.40
2022-10-05T11:59:39.628Z,5.20
2022-10-05T12:02:48.278Z,11.52
2022-10-05T12:05:21.439Z,4.82
2022-10-05T12:08:30.064Z,8.30
2022-10-05T12:11:33.987Z,5.20
2022-10-05T12:14:10.638Z,15.35
2022-10-05T12:16:50.982Z,9.55
2022-10-05T12:19:22.109Z,9.65
2022-10-05T12:22:10.058Z,24.25
2022-10-05T12:24:36.977Z,19.55
2022-10-05T12:27:32.374Z,21.42
2022-10-05T12:30:05.932Z,16.38
2022-10-05T12:32:41.632Z,22.67
2022-10-05T12:35:43.964Z,15.70
2022-10-05T12:38:25.039Z,21.20
2022-10-05T12:41:11.135Z,21.02
2022-10-05T12:43:53.929Z,14.65
2022-10-05T12:46:55.557Z,12.98
2022-10-05T12:49:50.004Z,13.95
2022-10-05T12:52:37.659Z,11.98
2022-10-05T12:55:22.042Z,7.18
2022-10-05T12:58:05.815Z,8.43
2022-10-05T13:00:38.047Z,14.63
2022-10-05T13:03:44.944Z,23.73
2022-10-05T13:06:55.767Z,21.58
2022-10-05T13:09:40.345Z,16.60
2022-10-05T13:12:27.054Z,14.98
2022-10-05T13:15:08.776Z,17.23
2022-10-05T13:17:42.675Z,8.57
2022-10-05T13:20:29.898Z,12.65
2022-10-05T13:23:34.981Z,13.65
2022-10-05T13:26:07.896Z,9.48
2022-10-05T13:28:58.630Z,8.60
2022-10-05T13:31:33.126Z,18.40
2022-10-05T13:34:18.022Z,7.53
2022-10-05T13:37:23.323Z,15.43
2022-10-05T13:40:01.179Z,5.25
2022-10-05T13:42:40.326Z,12.25
2022-10-05T13:45:20.307Z,8.82
2022-10-05T13:47:58.814Z,3.60
2022-10-05T13:50:33.623Z,11.48
2022-10-05T13:53:24.800Z,4.68
2022-10-05T13:56:06.927Z,11.02
2022-10-05T13:58:45.370Z,5.72
2022-10-05T14:01:43.619Z,8.50
2022-10-05T14:04:21.232Z,10.57
2022-10-05T14:06:49.623Z,11.43
2022-10-05T14:09:30.396Z,7.68
2022-10-05T14:12:03.183Z,8.82
2022-10-05T14:14:42.310Z,8.88
2022-10-05T14:17:35.756Z,34.45
2022-10-05T14:20:26.035Z,18.40
2022-10-05T14:23:01.029Z,21.77
2022-10-05T14:25:30.215Z,7.05
2022-10-05T14:28:12.414Z,8.45
2022-10-05T14:30:40.984Z,10.57
2022-10-05T14:33:17.332Z,14.05
2022-10-05T14:35:49.180Z,16.67
2022-10-05T14:38:30.015Z,8.55
2022-10-05T14:41:17.721Z,8.77
2022-10-05T14:44:13.442Z,13.63
2022-10-05T14:47:12.048Z,13.02
2022-10-05T14:50:16.228Z,11.70
2022-10-05T14:53:17.415Z,8.20
2022-10-05T14:56:09.172Z,9.13
2022-10-05T14:58:55.974Z,26.25
2022-10-05T15:01:31.832Z,16.25
2022-10-05T15:04:21.428Z,20.65
2022-10-05T15:07:06.344Z,24.33
2022-10-05T15:09:52.073Z,11.80
2022-10-05T15:12:29.552Z,12.35
2022-10-05T15:15:05.165Z,9.85
2022-10-05T15:17:52.749Z,7.47
2022-10-05T15:20:29.471Z,14.82
2022-10-05T15:23:11.484Z,7.53
2022-10-05T15:26:06.298Z,11.25
2022-10-05T15:28:54.724Z,24.85
2022-10-05T15:31:25.932Z,22.52
2022-10-05T15:34:08.179Z,31.67
2022-10-05T15:36:52.613Z,29.70
2022-10-05T15:39:36.428Z,19.08
2022-10-05T15:42:17.424Z,29.60
2022-10-05T15:44:52.333Z,14.60
2022-10-05T15:47:54.814Z,7.88
2022-10-05T15:50:35.672Z,16.73
2022-10-05T15:53:17.835Z,14.25
2022-10-05T15:55:56.634Z,15.90
2022-10-05T15:58:31.498Z,25.00
2022-10-05T16:01:11.363Z,14.55
2022-10-05T16:03:49.369Z,10.55
2022-10-05T16:06:56.728Z,15.90
2022-10-05T16:09:34.575Z,15.03
2022-10-05T16:12:21.534Z,16.92
2022-10-05T16:15:00.694Z,10.40
2022-10-05T16:17:47.475Z,9.68
2022-10-05T16:20:20.858Z,9.13
2022-10-05T16:23:29.998Z,12.85
2022-10-05T16:26:20.596Z,6.07
2022-10-05T16:28:47.702Z,15.73
2022-10-05T16:31:31.267Z,5.93
2022-10-05T16:34:10.386Z,16.35
2022-10-05T16:37:28.462Z,9.90
2022-10-05T16:40:21.537Z,15.53
2022-10-05T16:43:28.382Z,26.00
2022-10-05T16:46:15.936Z,20.48
2022-10-05T16:51:23.426Z,24.25
2022-10-05T16:54:02.240Z,18.70
2022-10-05T16:56:39.462Z,13.57
2022-10-05T16:59:24.676Z,13.98
2022-10-05T17:02:15.272Z,14.52
2022-10-05T17:05:01.821Z,17.95
2022-10-05T17:07:49.806Z,17.13
2022-10-05T17:10:38.010Z,21.45
2022-10-05T17:13:37.615Z,20.70
2022-10-05T17:16:29.442Z,22.25
2022-10-05T17:19:21.347Z,21.65
2022-10-05T17:22:07.933Z,19.33
2022-10-05T17:24:41.833Z,22.20
2022-10-05T17:27:26.123Z,18.60
2022-10-05T17:29:55.405Z,16.88
2022-10-05T17:32:22.353Z,21.05
2022-10-05T17:35:01.435Z,21.55
2022-10-05T17:37:28.425Z,15.50
2022-10-05T17:39:57.634Z,8.65
2022-10-05T17:42:30.247Z,17.10
2022-10-05T17:45:20.890Z,20.48
2022-10-05T17:48:04.261Z,19.10
2022-10-05T17:51:09.781Z,20.20
2022-10-05T17:54:04.164Z,15.98
2022-10-05T17:56:53.424Z,23.77
2022-10-05T17:59:46.331Z,15.25
2022-10-05T18:02:23.034Z,12.80
2022-10-05T18:05:14.623Z,22.92
2022-10-05T18:07:44.173Z,13.00
2022-10-05T18:10:16.997Z,13.55
2022-10-05T18:13:11.361Z,15.27
2022-10-05T18:15:45.326Z,16.80
2022-10-05T18:18:44.031Z,16.02
2022-10-05T18:21:13.866Z,15.52
2022-10-05T18:24:02.895Z,18.92
2022-10-05T18:26:36.956Z,16.88
2022-10-05T18:29:39.023Z,22.20
2022-10-05T18:32:23.570Z,20.88
2022-10-05T18:35:01.976Z,27.33
2022-10-05T18:37:50.664Z,21.95
2022-10-05T18:40:26.682Z,37.53
2022-10-05T18:43:06.576Z,24.30
2022-10-05T18:45:44.240Z,31.30
2022-10-05T18:48:30.051Z,29.08
2022-10-05T18:51:27.405Z,8.50
2022-10-05T18:53:54.591Z,15.45
2022-10-05T18:56:30.283Z,15.98
2022-10-05T18:59:27.712Z,14.70
2022-10-05T19:02:20.329Z,22.42
2022-10-05T19:05:29.305Z,28.73
2022-10-05T19:08:20.726Z,20.42
2022-10-05T19:10:55.662Z,21.35
2022-10-05T19:13:25.525Z,19.00
2022-10-05T19:16:06.888Z,30.02
2022-10-05T19:19:01.331Z,23.52
2022-10-05T19:21:39.594Z,18.83
2022-10-05T19:24:25.047Z,27.88
2022-10-05T19:27:17.178Z,27.30
2022-10-05T19:29:56.218Z,26.08
2022-10-05T19:32:30.544Z,22.85
2022-10-05T19:35:13.198Z,23.90
2022-10-05T19:38:00.813Z,21.23
2022-10-05T19:40:36.354Z,27.70
2022-10-05T19:43:19.133Z,24.98
2022-10-05T19:46:19.018Z,29.73
2022-10-05T19:48:53.464Z,48.53
2022-10-05T19:51:36.124Z,39.58
2022-10-05T19:54:16.466Z,51.22
2022-10-05T19:56:50.218Z,40.38
2022-10-05T19:59:24.689Z,34.25
2022-10-05T20:01:57.355Z,59.25
2022-10-05T20:04:41.018Z,89.60
2022-10-05T20:07:17.263Z,45.08
2022-10-05T20:09:59.520Z,35.70
2022-10-05T20:12:54.698Z,42.30
2022-10-05T20:15:52.121Z,30.60
2022-10-05T20:18:58.708Z,27.13
2022-10-05T20:21:45.977Z,35.05
2022-10-05T20:24:20.461Z,20.95
2022-10-05T20:27:15.156Z,24.27
2022-10-05T20:29:44.858Z,42.03
2022-10-05T20:32:18.099Z,28.08
2022-10-05T20:34:47.215Z,32.50
2022-10-05T20:37:16.684Z,33.72
2022-10-05T20:39:43.823Z,30.02
2022-10-05T20:42:11.254Z,30.67
2022-10-05T20:44:38.603Z,22.27
2022-10-05T20:47:09.648Z,19.83
2022-10-05T20:49:38.533Z,22.77
2022-10-05T20:52:06.750Z,22.17
2022-10-05T20:54:33.848Z,19.70
2022-10-05T20:57:00.833Z,19.55
2022-10-05T20:59:27.831Z,20.75
2022-10-05T21:01:54.984Z,19.67
2022-10-05T21:04:24.580Z,19.80
2022-10-05T21:06:52.961Z,19.52
2022-10-05T21:09:21.618Z,28.45
2022-10-05T21:11:50.353Z,19.85
2022-10-05T21:14:17.425Z,22.30
2022-10-05T21:16:45.985Z,21.23
2022-10-05T21:19:14.454Z,16.55
2022-10-05T21:21:43.296Z,23.95
2022-10-05T21:24:13.925Z,14.23
2022-10-05T21:26:41.839Z,13.18
2022-10-05T21:29:12.575Z,22.20
2022-10-05T21:31:40.512Z,18.70
2022-10-05T21:34:07.906Z,17.23
2022-10-05T21:36:35.247Z,18.73
2022-10-05T21:39:02.267Z,23.40
2022-10-05T21:41:29.350Z,25.73
2022-10-05T21:43:56.332Z,33.90
2022-10-05T21:46:27.607Z,19.05
2022-10-05T21:48:55.955Z,21.02
2022-10-05T21:51:26.389Z,19.33
2022-10-05T21:54:03.653Z,21.48
2022-10-05T21:56:37.097Z,11.98
2022-10-05T21:59:09.284Z,16.95
2022-10-05T22:01:37.155Z,13.50
2022-10-05T22:04:06.874Z,12.18
2022-10-05T22:06:36.645Z,15.40
2022-10-05T22:09:06.015Z,11.73
2022-10-05T22:11:34.269Z,17.13
2022-10-05T22:14:04.257Z,23.10
2022-10-05T22:16:34.941Z,14.60
2022-10-05T22:19:05.286Z,11.10
2022-10-05T22:21:34.427Z,11.45
2022-10-05T22:24:02.804Z,19.10
2022-10-05T22:26:30.124Z,16.08
2022-10-05T22:28:57.224Z,15.13
2022-10-05T22:31:24.516Z,13.60
2022-10-05T22:33:51.575Z,15.77
2022-10-05T22:36:19.570Z,11.73
2022-10-05T22:38:47.725Z,19.50
2022-10-05T22:41:18.448Z,18.45
2022-10-05T22:43:50.188Z,15.48
2022-10-05T22:46:18.096Z,19.08
2022-10-05T22:48:45.074Z,12.38
2022-10-05T22:51:12.136Z,18.20
2022-10-05T22:53:39.175Z,18.10
2022-10-05T22:56:09.048Z,18.58
2022-10-05T22:58:36.704Z,16.35
2022-10-05T23:01:05.929Z,13.57
2022-10-05T23:03:33.545Z,18.55
2022-10-05T23:06:03.679Z,16.05
2022-10-05T23:08:32.259Z,16.90
2022-10-05T23:11:10.630Z,15.18
2022-10-05T23:13:38.107Z,12.90
2022-10-05T23:18:50.631Z,11.82
2022-10-05T23:21:18.889Z,23.52
2022-10-05T23:23:49.059Z,16.92
2022-10-05T23:26:16.996Z,19.52
2022-10-05T23:28:48.058Z,27.08
2022-10-05T23:31:17.481Z,18.80
2022-10-05T23:33:44.715Z,25.23
2022-10-05T23:36:21.970Z,16.13
2022-10-05T23:38:49.428Z,21.30
2022-10-05T23:41:17.205Z,22.75
2022-10-05T23:43:44.201Z,15.73
2022-10-05T23:46:11.993Z,10.90
2022-10-05T23:48:39.287Z,15.07
2022-10-05T23:51:08.185Z,14.65
2022-10-05T23:53:35.552Z,17.38
2022-10-05T23:56:02.721Z,13.57
2022-10-05T23:58:30.036Z,17.40
